Time;durP1;ratioP1;P1;durP2;ratioP2;P2;SDS_P1;SDS_P2;PMS_P1;PMS_P2;Temp;Humidity;BMP_temperature;BMP_pressure;BME280_temperature;BME280_humidity;BME280_pressure;Samples;Min_cycle;Max_cycle;Signal;HPM_P1;HPM_P2
2021/08/25 00:01:30;;;;;;;;;;;11.80;99.90;;;;;;6216233;23;20058;-93
2021/08/25 00:04:26;;;;;;;;;;;11.70;99.90;;;;;;6219143;23;20211;-92
2021/08/25 00:07:19;;;;;;;;;;;11.70;99.90;;;;;;6216056;23;20002;-93
2021/08/25 00:10:06;;;;;;;;;;;11.70;99.90;;;;;;6217668;23;19920;-94
2021/08/25 00:12:56;;;;;;;;;;;11.70;99.90;;;;;;6218433;23;19978;-93
2021/08/25 00:15:44;;;;;;;;;;;11.70;99.90;;;;;;6218213;23;20215;-93
2021/08/25 00:18:31;;;;;;;;;;;11.70;99.90;;;;;;6220317;23;20077;-93
2021/08/25 00:21:20;;;;;;;;;;;11.60;99.90;;;;;;6218881;23;19920;-94
2021/08/25 00:24:07;;;;;;;;;;;11.50;99.90;;;;;;6221822;23;20235;-93
2021/08/25 00:26:58;;;;;;;;;;;11.40;99.90;;;;;;6218375;23;19943;-92
2021/08/25 00:29:52;;;;;;;;;;;11.40;99.90;;;;;;6226137;23;19920;-93
2021/08/25 00:32:41;;;;;;;;;;;11.40;99.90;;;;;;6239155;23;19936;-93
2021/08/25 00:35:28;;;;;;;;;;;11.30;99.90;;;;;;6236980;23;19934;-92
2021/08/25 00:38:18;;;;;;;;;;;11.30;99.90;;;;;;6230622;23;19927;-91
2021/08/25 00:41:09;;;;;;;;;;;11.40;99.90;;;;;;6225134;23;20326;-93
2021/08/25 00:44:01;;;;;;;;;;;11.40;99.90;;;;;;6223362;23;19920;-93
2021/08/25 00:46:48;;;;;;;;;;;11.30;99.90;;;;;;6221213;23;19924;-91
2021/08/25 00:49:36;;;;;;;;;;;11.30;99.90;;;;;;6220694;23;19939;-90
2021/08/25 00:52:26;;;;;;;;;;;11.30;99.90;;;;;;6219868;23;19919;-91
2021/08/25 00:55:14;;;;;;;;;;;11.30;99.90;;;;;;6222661;23;19928;-92
2021/08/25 00:58:10;;;;;;;;;;;11.30;99.90;;;;;;6220173;23;19920;-91
2021/08/25 01:01:05;;;;;;;;;;;11.30;99.90;;;;;;6222497;23;19950;-93
2021/08/25 01:04:05;;;;;;;;;;;11.20;99.90;;;;;;6221400;23;19924;-93
2021/08/25 01:06:56;;;;;;;;;;;11.20;99.90;;;;;;6221466;23;19934;-91
2021/08/25 01:09:43;;;;;;;;;;;11.20;99.90;;;;;;6227108;23;19944;-92
2021/08/25 01:12:31;;;;;;;;;;;11.20;99.90;;;;;;6224576;23;19924;-93
2021/08/25 01:15:18;;;;;;;;;;;11.10;99.90;;;;;;6220701;23;20022;-93
2021/08/25 01:18:09;;;;;;;;;;;11.10;99.90;;;;;;6223102;23;19975;-93
2021/08/25 01:20:59;;;;;;;;;;;11.00;99.90;;;;;;6221214;23;20231;-92
2021/08/25 01:23:54;;;;;;;;;;;11.00;99.90;;;;;;6222843;23;19920;-93
2021/08/25 01:26:41;;;;;;;;;;;10.90;99.90;;;;;;6224782;23;19923;-92
2021/08/25 01:29:30;;;;;;;;;;;10.90;99.90;;;;;;6227152;23;20280;-92
2021/08/25 01:32:18;;;;;;;;;;;10.90;99.90;;;;;;6219789;23;19927;-91
2021/08/25 01:35:06;;;;;;;;;;;10.90;99.90;;;;;;6223083;23;19920;-93
2021/08/25 01:37:53;;;;;;;;;;;10.90;99.90;;;;;;6222531;23;19974;-93
2021/08/25 01:40:48;;;;;;;;;;;10.90;99.90;;;;;;6219588;23;20284;-92
2021/08/25 01:43:35;;;;;;;;;;;10.90;99.90;;;;;;6221431;23;19993;-92
2021/08/25 01:46:24;;;;;;;;;;;10.90;99.90;;;;;;6221886;23;19932;-93
2021/08/25 01:49:14;;;;;;;;;;;10.80;99.90;;;;;;6220856;23;19924;-92
2021/08/25 01:52:04;;;;;;;;;;;10.80;99.90;;;;;;6234083;23;19985;-94
2021/08/25 01:54:52;;;;;;;;;;;10.70;99.90;;;;;;6234301;22;19950;-94
2021/08/25 01:57:39;;;;;;;;;;;10.70;99.90;;;;;;6231825;23;19988;-90
2021/08/25 02:00:28;;;;;;;;;;;10.60;99.90;;;;;;6236967;23;19976;-93
2021/08/25 02:03:18;;;;;;;;;;;10.60;99.90;;;;;;6233492;23;19947;-94
2021/08/25 02:06:06;;;;;;;;;;;10.60;99.90;;;;;;6224645;23;19931;-92
2021/08/25 02:08:54;;;;;;;;;;;10.60;99.90;;;;;;6222664;23;19939;-94
2021/08/25 02:11:41;;;;;;;;;;;10.50;99.90;;;;;;6217800;23;19949;-93
2021/08/25 02:14:28;;;;;;;;;;;10.50;99.90;;;;;;6219860;23;19950;-93
2021/08/25 02:17:15;;;;;;;;;;;10.50;99.90;;;;;;6219302;23;20312;-94
2021/08/25 02:20:04;;;;;;;;;;;10.40;99.90;;;;;;6220743;23;19990;-93
2021/08/25 02:22:54;;;;;;;;;;;10.40;99.90;;;;;;6219210;23;19943;-92
2021/08/25 02:25:47;;;;;;;;;;;10.30;99.90;;;;;;6219209;23;20323;-93
2021/08/25 02:28:40;;;;;;;;;;;10.30;99.90;;;;;;6200942;23;19974;-93
2021/08/25 02:31:35;;;;;;;;;;;10.30;99.90;;;;;;6220187;23;19920;-96
2021/08/25 02:34:22;;;;;;;;;;;10.30;99.90;;;;;;6225046;23;19920;-93
2021/08/25 02:37:09;;;;;;;;;;;10.30;99.90;;;;;;6199361;23;19924;-92
2021/08/25 02:39:56;;;;;;;;;;;10.30;99.90;;;;;;6219650;23;20304;-91
2021/08/25 02:42:56;;;;;;;;;;;10.40;99.90;;;;;;6220247;23;19960;-93
2021/08/25 02:45:43;;;;;;;;;;;10.30;99.90;;;;;;6221174;23;20232;-91
2021/08/25 02:48:36;;;;;;;;;;;10.30;99.90;;;;;;6221640;23;20253;-93
2021/08/25 02:51:24;;;;;;;;;;;10.30;99.90;;;;;;6223774;23;19939;-92
2021/08/25 02:54:11;;;;;;;;;;;10.30;99.90;;;;;;6222539;23;19924;-92
2021/08/25 02:57:00;;;;;;;;;;;10.20;99.90;;;;;;6231478;23;20022;-94
2021/08/25 02:59:50;;;;;;;;;;;10.20;99.90;;;;;;6210059;23;19997;-93
2021/08/25 03:02:42;;;;;;;;;;;10.10;99.90;;;;;;6236500;22;20007;-92
2021/08/25 06:40:27;;;;;;;;;;;13.10;99.90;;;;;;6132597;23;19925;-94
2021/08/25 06:47:11;;;;;;;;;;;13.50;99.90;;;;;;5980343;23;19922;-92
2021/08/25 06:50:32;;;;;;;;;;;13.80;99.90;;;;;;6051367;23;19932;-93
2021/08/25 07:00:52;;;;;;;;;;;;;;;;;;;;;
2021/08/25 07:15:17;;;;;;;;;;;15.80;99.90;;;;;;5937112;24;19934;-92
2021/08/25 07:22:22;;;;;;;;;;;15.90;99.90;;;;;;5950068;23;19934;-92
2021/08/25 07:29:50;;;;;;;;;;;;;;;;;;;;;
2021/08/25 07:33:24;;;;;;;;;;;;;;;;;;;;;
2021/08/25 07:37:06;;;;;;;;;;;;;;;;;;;;;
2021/08/25 07:40:17;;;;;;;;;;;15.50;99.90;;;;;;5901177;24;19963;-91
2021/08/25 07:43:48;;;;;;;;;;;15.80;99.90;;;;;;5900506;24;20018;-92
2021/08/25 07:47:48;;;;;;;;;;;;;;;;;;;;;
2021/08/25 07:51:10;;;;;;;;;;;;;;;;;;;;;
2021/08/25 08:05:57;;;;;;;;;;;17.60;99.90;;;;;;5868078;24;19912;-90
2021/08/25 08:09:36;;;;;;;;;;;18.10;99.90;;;;;;5778807;24;19934;-92
2021/08/25 08:12:47;;;;;;;;;;;19.10;99.90;;;;;;5771925;24;19921;-93
2021/08/25 08:16:15;;;;;;;;;;;;;;;;;;;;;
2021/08/25 08:26:48;;;;;;;;;;;20.40;98.90;;;;;;5913183;24;20292;-93
2021/08/25 08:30:10;;;;;;;;;;;20.80;98.20;;;;;;5922555;24;19934;-92
2021/08/25 08:36:27;;;;;;;;;;;21.40;93.50;;;;;;5814675;24;20002;-92
2021/08/25 08:40:01;;;;;;;;;;;21.10;92.80;;;;;;5830774;24;20204;-90
2021/08/25 08:43:19;;;;;;;;;;;21.20;92.90;;;;;;5858835;24;19928;-93
2021/08/25 08:53:52;;;;;;;;;;;21.60;91.60;;;;;;5825220;24;19921;-92
2021/08/25 08:57:15;;;;;;;;;;;22.00;90.90;;;;;;5870550;24;19923;-90
2021/08/25 09:00:38;;;;;;;;;;;;;;;;;;;;;
2021/08/25 09:03:59;;;;;;;;;;;22.10;87.30;;;;;;5937637;24;19916;-91
2021/08/25 09:06:55;;;;;;;;;;;22.80;85.70;;;;;;5942987;24;19922;-92
2021/08/25 09:09:53;;;;;;;;;;;22.60;80.10;;;;;;5943648;24;19911;-90
2021/08/25 09:12:53;;;;;;;;;;;22.60;81.00;;;;;;5955606;23;19973;-94
2021/08/25 09:20:07;;;;;;;;;;;23.00;78.70;;;;;;5989556;24;19978;-92
2021/08/25 09:30:27;;;;;;;;;;;;;;;;;;;;;
2021/08/25 09:40:39;;;;;;;;;;;24.20;73.40;;;;;;6066918;23;19921;-90
2021/08/25 09:44:19;;;;;;;;;;;;;;;;;;;;;
2021/08/25 09:47:22;;;;;;;;;;;25.50;71.30;;;;;;5939787;24;19922;-90
2021/08/25 09:50:17;;;;;;;;;;;25.90;68.60;;;;;;5982493;24;19936;-94
2021/08/25 09:53:20;;;;;;;;;;;25.50;65.70;;;;;;5968147;24;19973;-94
2021/08/25 09:56:32;;;;;;;;;;;24.40;72.80;;;;;;5987691;24;19997;-91
2021/08/25 09:59:24;;;;;;;;;;;24.00;69.60;;;;;;5985750;24;19953;-89
2021/08/25 10:02:14;;;;;;;;;;;23.00;70.00;;;;;;5987949;23;19923;-89
2021/08/25 10:05:42;;;;;;;;;;;22.70;73.70;;;;;;5987318;23;19922;-91
2021/08/25 10:09:03;;;;;;;;;;;23.40;74.40;;;;;;5979897;24;19938;-90
2021/08/25 10:12:07;;;;;;;;;;;23.10;76.60;;;;;;5985345;23;19946;-92
2021/08/25 10:15:16;;;;;;;;;;;23.20;71.70;;;;;;6051733;23;19994;-92
2021/08/25 10:18:28;;;;;;;;;;;22.60;74.60;;;;;;6067258;23;19921;-91
2021/08/25 10:25:14;;;;;;;;;;;23.10;72.60;;;;;;6040515;23;19940;-92
2021/08/25 10:28:18;;;;;;;;;;;24.00;70.50;;;;;;6067082;23;19957;-92
2021/08/25 10:31:21;;;;;;;;;;;25.30;64.60;;;;;;6067439;23;19922;-92
2021/08/25 10:34:23;;;;;;;;;;;;;;;;;;;;;
2021/08/25 10:37:25;;;;;;;;;;;25.70;62.50;;;;;;6038257;23;19933;-92
2021/08/25 10:40:15;;;;;;;;;;;26.50;58.30;;;;;;6134749;23;19924;-89
2021/08/25 10:43:11;;;;;;;;;;;26.20;57.50;;;;;;6156996;23;19927;-90
2021/08/25 10:45:59;;;;;;;;;;;26.10;58.40;;;;;;6157498;23;19932;-89
2021/08/25 10:48:48;;;;;;;;;;;25.40;56.30;;;;;;6157993;23;19944;-88
2021/08/25 10:51:36;;;;;;;;;;;24.80;57.80;;;;;;6156629;23;19927;-92
2021/08/25 10:54:24;;;;;;;;;;;24.30;59.00;;;;;;6159064;23;19928;-92
2021/08/25 10:57:41;;;;;;;;;;;;;;;;;;;;;
2021/08/25 11:00:46;;;;;;;;;;;25.20;57.20;;;;;;6142879;23;19932;-92
2021/08/25 11:03:47;;;;;;;;;;;24.00;60.70;;;;;;6159908;23;20008;-93
2021/08/25 11:06:55;;;;;;;;;;;24.70;59.60;;;;;;6158682;23;19921;-90
2021/08/25 11:09:43;;;;;;;;;;;26.00;58.60;;;;;;6139588;23;20240;-89
2021/08/25 11:12:45;;;;;;;;;;;26.20;53.80;;;;;;6165087;23;19957;-89
2021/08/25 11:16:02;;;;;;;;;;;25.10;56.50;;;;;;6048665;23;19994;-92
2021/08/25 11:19:06;;;;;;;;;;;25.20;58.50;;;;;;6049581;23;19922;-90
2021/08/25 11:22:03;;;;;;;;;;;25.80;55.30;;;;;;6052475;23;19926;-91
2021/08/25 11:26:01;;;;;;;;;;;25.00;56.00;;;;;;6050377;23;19922;-93
2021/08/25 11:28:56;;;;;;;;;;;24.40;58.90;;;;;;5997460;24;19922;-91
2021/08/25 11:32:17;;;;;;;;;;;;;;;;;;;;;
2021/08/25 11:35:48;;;;;;;;;;;27.00;57.10;;;;;;5893310;24;19924;-92
2021/08/25 11:39:04;;;;;;;;;;;26.90;54.00;;;;;;5934450;24;19959;-91
2021/08/25 11:42:05;;;;;;;;;;;25.80;55.50;;;;;;5873223;24;20003;-89
2021/08/25 11:45:43;;;;;;;;;;;;;;;;;;;;;
2021/08/25 11:49:16;;;;;;;;;;;26.50;53.90;;;;;;5997482;23;19925;-92
2021/08/25 11:52:29;;;;;;;;;;;27.00;51.90;;;;;;6108802;23;19961;-92
2021/08/25 11:56:07;;;;;;;;;;;28.00;51.50;;;;;;6089884;23;19925;-91
2021/08/25 11:59:17;;;;;;;;;;;29.00;51.60;;;;;;6050621;23;20105;-90
2021/08/25 12:02:09;;;;;;;;;;;29.70;48.80;;;;;;6107797;23;19921;-90
2021/08/25 12:05:16;;;;;;;;;;;29.80;48.70;;;;;;6101826;23;20013;-88
2021/08/25 12:08:22;;;;;;;;;;;28.70;45.60;;;;;;6103056;23;20031;-91
2021/08/25 12:12:01;;;;;;;;;;;;;;;;;;;;;
2021/08/25 12:14:53;;;;;;;;;;;28.40;50.10;;;;;;6189036;23;19932;-89
2021/08/25 12:21:52;;;;;;;;;;;29.90;44.60;;;;;;6191247;23;19936;-90
2021/08/25 12:25:07;;;;;;;;;;;30.00;45.40;;;;;;6190589;23;19924;-92
2021/08/25 12:32:13;;;;;;;;;;;31.40;43.10;;;;;;6016588;23;19966;-92
2021/08/25 12:35:51;;;;;;;;;;;;;;;;;;;;;
2021/08/25 12:39:05;;;;;;;;;;;30.20;43.00;;;;;;5906849;24;19975;-92
2021/08/25 12:43:10;;;;;;;;;;;;;;;;;;;;;
2021/08/25 12:45:56;;;;;;;;;;;29.70;43.60;;;;;;5900568;24;19912;-91
2021/08/25 12:49:08;;;;;;;;;;;30.40;40.90;;;;;;5924791;24;19919;-93
2021/08/25 12:51:59;;;;;;;;;;;30.40;42.20;;;;;;5985456;24;20235;-92
2021/08/25 12:54:51;;;;;;;;;;;30.40;42.70;;;;;;6100540;23;19933;-92
2021/08/25 12:58:13;;;;;;;;;;;30.40;42.30;;;;;;6088260;23;19925;-92
2021/08/25 13:01:00;;;;;;;;;;;31.30;41.10;;;;;;6085251;23;19925;-92
2021/08/25 13:04:16;;;;;;;;;;;31.40;40.50;;;;;;6024396;23;20043;-91
2021/08/25 13:07:52;;;;;;;;;;;30.60;41.70;;;;;;6022556;23;19929;-93
2021/08/25 13:11:01;;;;;;;;;;;30.30;42.60;;;;;;6059624;23;19969;-92
2021/08/25 13:14:43;;;;;;;;;;;30.70;41.40;;;;;;6052835;23;19926;-90
2021/08/25 13:18:05;;;;;;;;;;;30.80;41.70;;;;;;6070126;23;20005;-92
2021/08/25 13:21:30;;;;;;;;;;;30.20;40.70;;;;;;6076364;23;20383;-92
2021/08/25 13:24:31;;;;;;;;;;;;;;;;;;;;;
2021/08/25 13:27:50;;;;;;;;;;;30.40;43.20;;;;;;6185298;23;19920;-90
2021/08/25 13:31:06;;;;;;;;;;;29.90;42.30;;;;;;6187210;23;19921;-92
2021/08/25 13:35:10;;;;;;;;;;;28.50;45.30;;;;;;6188772;23;20173;-92
2021/08/25 13:38:09;;;;;;;;;;;29.10;46.00;;;;;;6188472;23;19978;-92
2021/08/25 13:42:01;;;;;;;;;;;29.90;43.90;;;;;;6189045;23;19924;-93
2021/08/25 13:45:45;;;;;;;;;;;30.50;42.90;;;;;;6188479;23;20252;-92
2021/08/25 13:49:16;;;;;;;;;;;30.90;41.40;;;;;;6030276;23;19979;-91
2021/08/25 13:55:15;;;;;;;;;;;31.60;40.20;;;;;;6053414;23;19981;-90
2021/08/25 13:58:57;;;;;;;;;;;32.10;41.40;;;;;;6070857;23;19950;-92
2021/08/25 14:02:28;;;;;;;;;;;;;;;;;;;;;
2021/08/25 14:05:50;;;;;;;;;;;31.20;40.40;;;;;;5961604;23;20329;-92
2021/08/25 14:08:43;;;;;;;;;;;30.80;41.40;;;;;;6051514;23;19928;-93
2021/08/25 14:14:51;;;;;;;;;;;30.20;40.70;;;;;;6036884;23;20041;-90
2021/08/25 14:18:07;;;;;;;;;;;30.30;41.20;;;;;;6068708;23;19922;-92
2021/08/25 14:21:35;;;;;;;;;;;30.40;40.40;;;;;;6071448;23;19922;-91
2021/08/25 14:25:13;;;;;;;;;;;;;;;;;;;;;
2021/08/25 14:28:26;;;;;;;;;;;;;;;;;;;;;
2021/08/25 14:31:34;;;;;;;;;;;29.70;42.40;;;;;;6095537;23;19937;-92
2021/08/25 14:34:51;;;;;;;;;;;30.20;41.50;;;;;;6100422;23;19933;-91
2021/08/25 14:38:00;;;;;;;;;;;30.00;41.20;;;;;;6129744;23;19941;-93
2021/08/25 14:41:21;;;;;;;;;;;;;;;;;;;;;
2021/08/25 14:44:30;;;;;;;;;;;30.00;42.20;;;;;;6137138;23;20367;-90
2021/08/25 14:47:37;;;;;;;;;;;29.70;41.30;;;;;;6141585;23;20240;-94
2021/08/25 14:50:45;;;;;;;;;;;29.70;43.00;;;;;;6144977;23;19928;-90
2021/08/25 14:54:26;;;;;;;;;;;29.60;43.00;;;;;;6178815;23;19943;-92
2021/08/25 14:57:34;;;;;;;;;;;29.70;42.70;;;;;;6214944;23;20288;-90
2021/08/25 15:00:27;;;;;;;;;;;29.70;41.90;;;;;;6216473;23;19920;-93
2021/08/25 15:03:15;;;;;;;;;;;29.90;40.60;;;;;;6232300;23;19946;-91
2021/08/25 15:06:12;;;;;;;;;;;30.30;43.80;;;;;;6216593;23;20295;-91
2021/08/25 15:09:13;;;;;;;;;;;30.70;41.30;;;;;;6211554;23;19970;-90
2021/08/25 15:12:40;;;;;;;;;;;;;;;;;;;;;
2021/08/25 15:15:29;;;;;;;;;;;30.50;40.30;;;;;;6231723;23;19926;-91
2021/08/25 15:18:37;;;;;;;;;;;30.10;41.70;;;;;;6232938;23;19944;-91
2021/08/25 15:25:17;;;;;;;;;;;29.40;42.70;;;;;;6232548;23;19921;-93
2021/08/25 15:29:21;;;;;;;;;;;;;;;;;;;;;
2021/08/25 15:36:06;;;;;;;;;;;28.50;45.40;;;;;;6105407;23;20003;-92
2021/08/25 15:39:18;;;;;;;;;;;28.80;44.00;;;;;;6091614;23;19932;-90
2021/08/25 15:42:47;;;;;;;;;;;;;;;;;;;;;
2021/08/25 15:46:07;;;;;;;;;;;;;;;;;;;;;
2021/08/25 15:49:18;;;;;;;;;;;;;;;;;;;;;
2021/08/25 15:52:48;;;;;;;;;;;28.50;43.90;;;;;;6039084;23;19941;-90
2021/08/25 15:56:07;;;;;;;;;;;28.40;44.40;;;;;;6035190;23;19996;-92
2021/08/25 15:59:09;;;;;;;;;;;28.60;45.10;;;;;;6040196;23;19922;-92
2021/08/25 16:02:21;;;;;;;;;;;28.00;44.10;;;;;;6038805;23;19990;-92
2021/08/25 16:06:14;;;;;;;;;;;27.70;45.30;;;;;;6134920;23;19984;-91
2021/08/25 16:09:13;;;;;;;;;;;28.30;44.10;;;;;;6142009;23;20180;-92
2021/08/25 16:12:43;;;;;;;;;;;27.70;46.40;;;;;;6167841;23;19920;-91
2021/08/25 16:15:34;;;;;;;;;;;27.60;46.60;;;;;;6218918;23;19920;-91
2021/08/25 16:18:27;;;;;;;;;;;27.30;46.80;;;;;;6231489;23;19908;-92
2021/08/25 16:22:00;;;;;;;;;;;;;;;;;;;;;
2021/08/25 16:25:51;;;;;;;;;;;26.40;47.80;;;;;;6127268;23;19921;-93
2021/08/25 16:29:18;;;;;;;;;;;25.80;49.60;;;;;;6117736;23;19967;-92
2021/08/25 16:32:42;;;;;;;;;;;24.90;51.00;;;;;;6019921;23;20002;-92
2021/08/25 16:35:31;;;;;;;;;;;23.70;53.90;;;;;;6014286;23;19922;-90
2021/08/25 16:38:20;;;;;;;;;;;23.10;56.60;;;;;;6013035;23;19960;-91
2021/08/25 16:41:37;;;;;;;;;;;22.40;58.40;;;;;;6021768;23;19926;-92
2021/08/25 16:44:58;;;;;;;;;;;21.80;61.50;;;;;;6000195;23;19929;-91
2021/08/25 16:47:58;;;;;;;;;;;20.90;64.40;;;;;;6018885;23;19922;-91
2021/08/25 17:02:12;;;;;;;;;;;19.40;72.20;;;;;;5988530;23;20000;-93
2021/08/25 17:09:38;;;;;;;;;;;19.10;72.60;;;;;;6002098;24;19930;-92
2021/08/25 17:16:38;;;;;;;;;;;;;;;;;;;;;
2021/08/25 17:23:36;;;;;;;;;;;;;;;;;;;;;
2021/08/25 17:26:48;;;;;;;;;;;18.30;79.00;;;;;;5962983;24;19919;-93
2021/08/25 17:29:40;;;;;;;;;;;18.10;79.90;;;;;;6052185;23;20040;-91
2021/08/25 17:33:02;;;;;;;;;;;18.00;81.70;;;;;;6101351;23;19927;-92
2021/08/25 17:36:24;;;;;;;;;;;17.90;79.80;;;;;;6086315;23;19928;-92
2021/08/25 17:39:22;;;;;;;;;;;;;;;;;;;;;
2021/08/25 17:42:46;;;;;;;;;;;;;;;;;;;;;
2021/08/25 18:03:43;;;;;;;;;;;;;;;;;;;;;
2021/08/25 18:14:07;;;;;;;;;;;;;;;;;;;;;
2021/08/25 21:14:39;;;;;;;;;;;13.00;99.90;;;;;;5158150;27;19972;-91
2021/08/25 21:57:53;;;;;;;;;;;12.20;99.90;;;;;;5285197;22;24499235;-92
2021/08/25 23:24:56;;;;;;;;;;;12.50;99.90;;;;;;6139289;23;19921;-92
2021/08/25 23:28:10;;;;;;;;;;;12.50;99.90;;;;;;6138130;23;19996;-90
2021/08/25 23:31:29;;;;;;;;;;;12.60;99.90;;;;;;6136056;23;20008;-90
2021/08/25 23:34:44;;;;;;;;;;;12.70;99.90;;;;;;6138461;23;20269;-90
2021/08/25 23:37:31;;;;;;;;;;;12.80;99.90;;;;;;6142774;23;19921;-90
2021/08/25 23:40:38;;;;;;;;;;;12.90;99.90;;;;;;6140644;23;19944;-92
2021/08/25 23:43:52;;;;;;;;;;;13.00;99.90;;;;;;6138547;23;20001;-90
2021/08/25 23:46:49;;;;;;;;;;;13.10;99.90;;;;;;6118259;23;20181;-91
2021/08/25 23:49:37;;;;;;;;;;;13.10;99.90;;;;;;6257295;23;19924;-90
2021/08/25 23:52:34;;;;;;;;;;;13.10;99.90;;;;;;6255415;23;19920;-92
2021/08/25 23:56:10;;;;;;;;;;;13.10;99.90;;;;;;6239757;23;20374;-92
2021/08/25 23:59:26;;;;;;;;;;;13.20;99.90;;;;;;6256920;23;19929;-93
